sensor_id;sensor_type;location;lat;lon;timestamp;temperature;humidity
72865;DHT22;61000;48.120;11.548;2022-12-07T00:00:18;3.10;99.90
72865;DHT22;61000;48.120;11.548;2022-12-07T00:02:45;3.10;99.90
72865;DHT22;61000;48.120;11.548;2022-12-07T00:05:11;3.10;99.90
72865;DHT22;61000;48.120;11.548;2022-12-07T00:07:38;3.10;99.90
72865;DHT22;61000;48.120;11.548;2022-12-07T00:10:07;3.00;99.90
72865;DHT22;61000;48.120;11.548;2022-12-07T00:12:34;3.00;99.90
72865;DHT22;61000;48.120;11.548;2022-12-07T00:15:01;3.00;99.90
72865;DHT22;61000;48.120;11.548;2022-12-07T00:17:28;3.10;99.90
72865;DHT22;61000;48.120;11.548;2022-12-07T00:19:54;3.10;99.90
72865;DHT22;61000;48.120;11.548;2022-12-07T00:22:21;3.10;99.90
72865;DHT22;61000;48.120;11.548;2022-12-07T00:24:48;3.10;99.90
72865;DHT22;61000;48.120;11.548;2022-12-07T00:27:16;3.10;99.90
72865;DHT22;61000;48.120;11.548;2022-12-07T00:29:43;3.10;99.90
72865;DHT22;61000;48.120;11.548;2022-12-07T00:32:10;3.00;99.90
72865;DHT22;61000;48.120;11.548;2022-12-07T00:34:37;3.00;99.90
72865;DHT22;61000;48.120;11.548;2022-12-07T00:37:04;3.00;99.90
72865;DHT22;61000;48.120;11.548;2022-12-07T00:39:31;3.00;99.90
72865;DHT22;61000;48.120;11.548;2022-12-07T00:41:57;3.00;99.90
72865;DHT22;61000;48.120;11.548;2022-12-07T00:44:25;2.90;99.90
72865;DHT22;61000;48.120;11.548;2022-12-07T00:46:52;2.90;99.90
72865;DHT22;61000;48.120;11.548;2022-12-07T00:49:20;2.90;99.90
72865;DHT22;61000;48.120;11.548;2022-12-07T00:51:48;2.90;99.90
72865;DHT22;61000;48.120;11.548;2022-12-07T00:54:14;2.90;99.90
72865;DHT22;61000;48.120;11.548;2022-12-07T00:56:41;2.90;99.90
72865;DHT22;61000;48.120;11.548;2022-12-07T00:59:12;2.90;99.90
72865;DHT22;61000;48.120;11.548;2022-12-07T01:01:41;2.90;99.90
72865;DHT22;61000;48.120;11.548;2022-12-07T01:04:08;2.90;99.90
72865;DHT22;61000;48.120;11.548;2022-12-07T01:06:35;2.80;99.90
72865;DHT22;61000;48.120;11.548;2022-12-07T01:09:03;2.80;99.90
72865;DHT22;61000;48.120;11.548;2022-12-07T01:11:30;2.80;99.90
72865;DHT22;61000;48.120;11.548;2022-12-07T01:13:58;2.80;99.90
72865;DHT22;61000;48.120;11.548;2022-12-07T01:16:30;2.80;99.90
72865;DHT22;61000;48.120;11.548;2022-12-07T01:18:59;2.80;99.90
72865;DHT22;61000;48.120;11.548;2022-12-07T01:21:28;2.80;99.90
72865;DHT22;61000;48.120;11.548;2022-12-07T01:23:57;2.80;99.90
72865;DHT22;61000;48.120;11.548;2022-12-07T01:26:25;2.80;99.90
72865;DHT22;61000;48.120;11.548;2022-12-07T01:28:53;2.80;99.90
72865;DHT22;61000;48.120;11.548;2022-12-07T01:31:22;2.90;99.90
72865;DHT22;61000;48.120;11.548;2022-12-07T01:33:50;2.90;99.90
72865;DHT22;61000;48.120;11.548;2022-12-07T01:36:20;2.90;99.90
72865;DHT22;61000;48.120;11.548;2022-12-07T01:38:49;2.90;99.90
72865;DHT22;61000;48.120;11.548;2022-12-07T01:41:18;2.90;99.90
72865;DHT22;61000;48.120;11.548;2022-12-07T01:44:14;2.80;99.90
72865;DHT22;61000;48.120;11.548;2022-12-07T01:46:42;2.80;99.90
72865;DHT22;61000;48.120;11.548;2022-12-07T01:49:12;2.80;99.90
72865;DHT22;61000;48.120;11.548;2022-12-07T01:51:43;2.80;99.90
72865;DHT22;61000;48.120;11.548;2022-12-07T01:54:12;2.80;99.90
72865;DHT22;61000;48.120;11.548;2022-12-07T01:56:40;2.90;99.90
72865;DHT22;61000;48.120;11.548;2022-12-07T01:59:09;2.90;99.90
72865;DHT22;61000;48.120;11.548;2022-12-07T02:01:36;2.90;99.90
72865;DHT22;61000;48.120;11.548;2022-12-07T02:04:03;2.80;99.90
72865;DHT22;61000;48.120;11.548;2022-12-07T02:06:31;2.80;99.90
72865;DHT22;61000;48.120;11.548;2022-12-07T02:08:59;2.80;99.90
72865;DHT22;61000;48.120;11.548;2022-12-07T02:11:26;2.80;99.90
72865;DHT22;61000;48.120;11.548;2022-12-07T02:13:53;2.80;99.90
72865;DHT22;61000;48.120;11.548;2022-12-07T02:16:29;2.80;99.90
72865;DHT22;61000;48.120;11.548;2022-12-07T02:19:07;2.80;99.90
72865;DHT22;61000;48.120;11.548;2022-12-07T02:21:46;2.80;99.90
72865;DHT22;61000;48.120;11.548;2022-12-07T02:24:30;2.80;99.90
72865;DHT22;61000;48.120;11.548;2022-12-07T02:30:04;2.80;99.90
72865;DHT22;61000;48.120;11.548;2022-12-07T02:32:40;2.70;99.90
72865;DHT22;61000;48.120;11.548;2022-12-07T02:35:12;2.80;99.90
72865;DHT22;61000;48.120;11.548;2022-12-07T02:37:49;2.80;99.90
72865;DHT22;61000;48.120;11.548;2022-12-07T02:40:22;2.80;99.90
72865;DHT22;61000;48.120;11.548;2022-12-07T02:42:54;2.80;99.90
72865;DHT22;61000;48.120;11.548;2022-12-07T02:45:25;2.80;99.90
72865;DHT22;61000;48.120;11.548;2022-12-07T02:47:56;2.80;99.90
72865;DHT22;61000;48.120;11.548;2022-12-07T02:50:25;2.80;99.90
72865;DHT22;61000;48.120;11.548;2022-12-07T02:52:52;2.80;99.90
72865;DHT22;61000;48.120;11.548;2022-12-07T02:55:24;2.70;99.90
72865;DHT22;61000;48.120;11.548;2022-12-07T02:58:02;2.80;99.90
72865;DHT22;61000;48.120;11.548;2022-12-07T03:00:39;2.80;99.90
72865;DHT22;61000;48.120;11.548;2022-12-07T03:03:10;2.80;99.90
72865;DHT22;61000;48.120;11.548;2022-12-07T03:05:54;2.80;99.90
72865;DHT22;61000;48.120;11.548;2022-12-07T03:08:30;2.80;99.90
72865;DHT22;61000;48.120;11.548;2022-12-07T03:11:00;2.80;99.90
72865;DHT22;61000;48.120;11.548;2022-12-07T03:13:33;2.80;99.90
72865;DHT22;61000;48.120;11.548;2022-12-07T03:16:07;2.80;99.90
72865;DHT22;61000;48.120;11.548;2022-12-07T03:18:38;2.80;99.90
72865;DHT22;61000;48.120;11.548;2022-12-07T03:21:09;2.80;99.90
72865;DHT22;61000;48.120;11.548;2022-12-07T03:23:39;2.80;99.90
72865;DHT22;61000;48.120;11.548;2022-12-07T03:26:09;2.80;99.90
72865;DHT22;61000;48.120;11.548;2022-12-07T03:28:42;2.80;99.90
72865;DHT22;61000;48.120;11.548;2022-12-07T03:31:14;2.80;99.90
72865;DHT22;61000;48.120;11.548;2022-12-07T03:33:46;2.80;99.90
72865;DHT22;61000;48.120;11.548;2022-12-07T03:36:19;2.80;99.90
72865;DHT22;61000;48.120;11.548;2022-12-07T03:38:49;2.80;99.90
72865;DHT22;61000;48.120;11.548;2022-12-07T03:41:21;2.80;99.90
72865;DHT22;61000;48.120;11.548;2022-12-07T03:43:49;2.70;99.90
72865;DHT22;61000;48.120;11.548;2022-12-07T03:46:22;2.70;99.90
72865;DHT22;61000;48.120;11.548;2022-12-07T03:48:56;2.70;99.90
72865;DHT22;61000;48.120;11.548;2022-12-07T03:51:28;2.70;99.90
72865;DHT22;61000;48.120;11.548;2022-12-07T03:54:07;2.70;99.90
72865;DHT22;61000;48.120;11.548;2022-12-07T03:56:36;2.70;99.90
72865;DHT22;61000;48.120;11.548;2022-12-07T03:59:04;2.70;99.90
72865;DHT22;61000;48.120;11.548;2022-12-07T04:01:32;2.70;99.90
72865;DHT22;61000;48.120;11.548;2022-12-07T04:03:59;2.70;99.90
72865;DHT22;61000;48.120;11.548;2022-12-07T04:06:26;2.70;99.90
72865;DHT22;61000;48.120;11.548;2022-12-07T04:08:53;2.60;99.90
72865;DHT22;61000;48.120;11.548;2022-12-07T04:11:20;2.70;99.90
72865;DHT22;61000;48.120;11.548;2022-12-07T04:13:46;2.60;99.90
72865;DHT22;61000;48.120;11.548;2022-12-07T04:16:34;2.60;99.90
72865;DHT22;61000;48.120;11.548;2022-12-07T04:19:01;2.70;99.90
72865;DHT22;61000;48.120;11.548;2022-12-07T04:21:28;2.70;99.90
72865;DHT22;61000;48.120;11.548;2022-12-07T04:23:55;2.70;99.90
72865;DHT22;61000;48.120;11.548;2022-12-07T04:26:21;2.60;99.90
72865;DHT22;61000;48.120;11.548;2022-12-07T04:28:48;2.70;99.90
72865;DHT22;61000;48.120;11.548;2022-12-07T04:31:15;2.70;99.90
72865;DHT22;61000;48.120;11.548;2022-12-07T04:33:43;2.60;99.90
72865;DHT22;61000;48.120;11.548;2022-12-07T04:36:10;2.60;99.90
72865;DHT22;61000;48.120;11.548;2022-12-07T04:38:37;2.60;99.90
72865;DHT22;61000;48.120;11.548;2022-12-07T04:41:05;2.60;99.90
72865;DHT22;61000;48.120;11.548;2022-12-07T04:43:32;2.50;99.90
72865;DHT22;61000;48.120;11.548;2022-12-07T04:45:59;2.50;99.90
72865;DHT22;61000;48.120;11.548;2022-12-07T04:48:26;2.50;99.90
72865;DHT22;61000;48.120;11.548;2022-12-07T04:50:55;2.50;99.90
72865;DHT22;61000;48.120;11.548;2022-12-07T04:53:22;2.50;99.90
72865;DHT22;61000;48.120;11.548;2022-12-07T04:55:48;2.40;99.90
72865;DHT22;61000;48.120;11.548;2022-12-07T04:58:15;2.40;99.90
72865;DHT22;61000;48.120;11.548;2022-12-07T05:00:42;2.40;99.90
72865;DHT22;61000;48.120;11.548;2022-12-07T05:03:09;2.40;99.90
72865;DHT22;61000;48.120;11.548;2022-12-07T05:05:36;2.40;99.90
72865;DHT22;61000;48.120;11.548;2022-12-07T05:08:07;2.40;99.90
72865;DHT22;61000;48.120;11.548;2022-12-07T05:10:34;2.30;99.90
72865;DHT22;61000;48.120;11.548;2022-12-07T05:13:01;2.30;99.90
72865;DHT22;61000;48.120;11.548;2022-12-07T05:15:27;2.40;99.90
72865;DHT22;61000;48.120;11.548;2022-12-07T05:17:54;2.40;99.90
72865;DHT22;61000;48.120;11.548;2022-12-07T05:20:21;2.40;99.90
72865;DHT22;61000;48.120;11.548;2022-12-07T05:22:48;2.40;99.90
72865;DHT22;61000;48.120;11.548;2022-12-07T05:25:16;2.40;99.90
72865;DHT22;61000;48.120;11.548;2022-12-07T05:27:43;2.40;99.90
72865;DHT22;61000;48.120;11.548;2022-12-07T05:30:11;2.30;99.90
72865;DHT22;61000;48.120;11.548;2022-12-07T05:32:38;2.30;99.90
72865;DHT22;61000;48.120;11.548;2022-12-07T05:35:05;2.30;99.90
72865;DHT22;61000;48.120;11.548;2022-12-07T05:37:32;2.30;99.90
72865;DHT22;61000;48.120;11.548;2022-12-07T05:39:59;2.20;99.90
72865;DHT22;61000;48.120;11.548;2022-12-07T05:42:27;2.20;99.90
72865;DHT22;61000;48.120;11.548;2022-12-07T05:44:54;2.20;99.90
72865;DHT22;61000;48.120;11.548;2022-12-07T05:47:21;2.20;99.90
72865;DHT22;61000;48.120;11.548;2022-12-07T05:49:48;2.20;99.90
72865;DHT22;61000;48.120;11.548;2022-12-07T05:52:15;2.20;99.90
72865;DHT22;61000;48.120;11.548;2022-12-07T05:54:42;2.20;99.90
72865;DHT22;61000;48.120;11.548;2022-12-07T05:57:09;2.20;99.90
72865;DHT22;61000;48.120;11.548;2022-12-07T05:59:37;2.30;99.90
72865;DHT22;61000;48.120;11.548;2022-12-07T06:02:05;2.20;99.90
72865;DHT22;61000;48.120;11.548;2022-12-07T06:04:34;2.20;99.90
72865;DHT22;61000;48.120;11.548;2022-12-07T06:07:01;2.20;99.90
72865;DHT22;61000;48.120;11.548;2022-12-07T06:09:28;2.20;99.90
72865;DHT22;61000;48.120;11.548;2022-12-07T06:11:56;2.30;99.90
72865;DHT22;61000;48.120;11.548;2022-12-07T06:14:42;2.30;99.90
72865;DHT22;61000;48.120;11.548;2022-12-07T06:17:09;2.30;99.90
72865;DHT22;61000;48.120;11.548;2022-12-07T06:19:36;2.20;99.90
72865;DHT22;61000;48.120;11.548;2022-12-07T06:22:03;2.30;99.90
72865;DHT22;61000;48.120;11.548;2022-12-07T06:24:30;2.20;99.90
72865;DHT22;61000;48.120;11.548;2022-12-07T06:26:58;2.20;99.90
72865;DHT22;61000;48.120;11.548;2022-12-07T06:29:25;2.20;99.90
72865;DHT22;61000;48.120;11.548;2022-12-07T06:31:53;2.20;99.90
72865;DHT22;61000;48.120;11.548;2022-12-07T06:34:23;2.20;99.90
72865;DHT22;61000;48.120;11.548;2022-12-07T06:36:51;2.20;99.90
72865;DHT22;61000;48.120;11.548;2022-12-07T06:39:22;2.20;99.90
72865;DHT22;61000;48.120;11.548;2022-12-07T06:41:49;2.20;99.90
72865;DHT22;61000;48.120;11.548;2022-12-07T06:44:17;2.20;99.90
72865;DHT22;61000;48.120;11.548;2022-12-07T06:46:44;2.10;99.90
72865;DHT22;61000;48.120;11.548;2022-12-07T06:49:12;2.10;99.90
72865;DHT22;61000;48.120;11.548;2022-12-07T06:51:39;2.20;99.90
72865;DHT22;61000;48.120;11.548;2022-12-07T06:54:07;2.20;99.90
72865;DHT22;61000;48.120;11.548;2022-12-07T06:56:34;2.30;99.90
72865;DHT22;61000;48.120;11.548;2022-12-07T06:59:01;2.30;99.90
72865;DHT22;61000;48.120;11.548;2022-12-07T07:01:28;2.30;99.90
72865;DHT22;61000;48.120;11.548;2022-12-07T07:03:55;2.30;99.90
72865;DHT22;61000;48.120;11.548;2022-12-07T07:06:23;2.30;99.90
72865;DHT22;61000;48.120;11.548;2022-12-07T07:08:51;2.30;99.90
72865;DHT22;61000;48.120;11.548;2022-12-07T07:11:18;2.30;99.90
72865;DHT22;61000;48.120;11.548;2022-12-07T07:13:45;2.30;99.90
72865;DHT22;61000;48.120;11.548;2022-12-07T07:16:13;2.30;99.90
72865;DHT22;61000;48.120;11.548;2022-12-07T07:18:40;2.30;99.90
72865;DHT22;61000;48.120;11.548;2022-12-07T07:21:07;2.30;99.90
72865;DHT22;61000;48.120;11.548;2022-12-07T07:23:36;2.30;99.90
72865;DHT22;61000;48.120;11.548;2022-12-07T07:26:03;2.30;99.90
72865;DHT22;61000;48.120;11.548;2022-12-07T07:28:29;2.30;99.90
72865;DHT22;61000;48.120;11.548;2022-12-07T07:30:56;2.30;99.90
72865;DHT22;61000;48.120;11.548;2022-12-07T07:33:23;2.30;99.90
72865;DHT22;61000;48.120;11.548;2022-12-07T07:35:50;2.30;99.90
72865;DHT22;61000;48.120;11.548;2022-12-07T07:38:17;2.20;99.90
72865;DHT22;61000;48.120;11.548;2022-12-07T07:40:45;2.30;99.90
72865;DHT22;61000;48.120;11.548;2022-12-07T07:43:12;2.30;99.90
72865;DHT22;61000;48.120;11.548;2022-12-07T07:45:39;2.30;99.90
72865;DHT22;61000;48.120;11.548;2022-12-07T07:48:06;2.30;99.90
72865;DHT22;61000;48.120;11.548;2022-12-07T07:50:33;2.40;99.90
72865;DHT22;61000;48.120;11.548;2022-12-07T07:52:59;2.40;99.90
72865;DHT22;61000;48.120;11.548;2022-12-07T07:55:26;2.40;99.90
72865;DHT22;61000;48.120;11.548;2022-12-07T07:57:54;2.40;99.90
72865;DHT22;61000;48.120;11.548;2022-12-07T08:00:22;2.50;99.90
72865;DHT22;61000;48.120;11.548;2022-12-07T08:02:49;2.50;99.90
72865;DHT22;61000;48.120;11.548;2022-12-07T08:05:16;2.50;99.90
72865;DHT22;61000;48.120;11.548;2022-12-07T08:07:43;2.50;99.90
72865;DHT22;61000;48.120;11.548;2022-12-07T08:10:11;2.50;99.90
72865;DHT22;61000;48.120;11.548;2022-12-07T08:12:39;2.50;99.90
72865;DHT22;61000;48.120;11.548;2022-12-07T08:15:30;2.60;99.90
72865;DHT22;61000;48.120;11.548;2022-12-07T08:17:57;2.60;99.90
72865;DHT22;61000;48.120;11.548;2022-12-07T08:20:24;2.60;99.90
72865;DHT22;61000;48.120;11.548;2022-12-07T08:22:50;2.60;99.90
72865;DHT22;61000;48.120;11.548;2022-12-07T08:25:17;2.70;99.90
72865;DHT22;61000;48.120;11.548;2022-12-07T08:27:44;2.70;99.90
72865;DHT22;61000;48.120;11.548;2022-12-07T08:30:11;2.70;99.90
72865;DHT22;61000;48.120;11.548;2022-12-07T08:32:39;2.70;99.90
72865;DHT22;61000;48.120;11.548;2022-12-07T08:35:07;2.70;99.90
72865;DHT22;61000;48.120;11.548;2022-12-07T08:37:34;2.70;99.90
72865;DHT22;61000;48.120;11.548;2022-12-07T08:40:01;2.70;99.90
72865;DHT22;61000;48.120;11.548;2022-12-07T08:42:28;2.70;99.90
72865;DHT22;61000;48.120;11.548;2022-12-07T08:45:04;2.80;99.90
72865;DHT22;61000;48.120;11.548;2022-12-07T08:47:32;2.80;99.90
72865;DHT22;61000;48.120;11.548;2022-12-07T08:50:01;2.80;99.90
72865;DHT22;61000;48.120;11.548;2022-12-07T08:52:29;2.90;99.90
72865;DHT22;61000;48.120;11.548;2022-12-07T08:54:56;2.90;99.90
72865;DHT22;61000;48.120;11.548;2022-12-07T08:57:24;2.90;99.90
72865;DHT22;61000;48.120;11.548;2022-12-07T08:59:51;3.00;99.90
72865;DHT22;61000;48.120;11.548;2022-12-07T09:02:17;3.00;99.90
72865;DHT22;61000;48.120;11.548;2022-12-07T09:04:44;3.00;99.90
72865;DHT22;61000;48.120;11.548;2022-12-07T09:07:13;3.00;99.90
72865;DHT22;61000;48.120;11.548;2022-12-07T09:09:39;3.10;99.90
72865;DHT22;61000;48.120;11.548;2022-12-07T09:12:07;3.10;99.90
72865;DHT22;61000;48.120;11.548;2022-12-07T09:14:34;3.10;99.90
72865;DHT22;61000;48.120;11.548;2022-12-07T09:17:06;3.10;99.90
72865;DHT22;61000;48.120;11.548;2022-12-07T09:19:33;3.20;99.90
72865;DHT22;61000;48.120;11.548;2022-12-07T09:22:01;3.20;99.90
72865;DHT22;61000;48.120;11.548;2022-12-07T09:24:29;3.20;99.90
72865;DHT22;61000;48.120;11.548;2022-12-07T09:26:56;3.30;99.90
72865;DHT22;61000;48.120;11.548;2022-12-07T09:29:23;3.30;99.90
72865;DHT22;61000;48.120;11.548;2022-12-07T09:31:50;3.40;99.90
72865;DHT22;61000;48.120;11.548;2022-12-07T09:34:17;3.40;99.90
72865;DHT22;61000;48.120;11.548;2022-12-07T09:36:44;3.50;99.90
72865;DHT22;61000;48.120;11.548;2022-12-07T09:39:11;3.50;99.90
72865;DHT22;61000;48.120;11.548;2022-12-07T09:41:41;3.50;99.90
72865;DHT22;61000;48.120;11.548;2022-12-07T09:44:12;3.50;99.90
72865;DHT22;61000;48.120;11.548;2022-12-07T09:46:41;3.60;99.90
72865;DHT22;61000;48.120;11.548;2022-12-07T09:49:12;3.70;99.90
72865;DHT22;61000;48.120;11.548;2022-12-07T09:51:41;3.70;99.90
72865;DHT22;61000;48.120;11.548;2022-12-07T09:54:09;3.80;99.90
72865;DHT22;61000;48.120;11.548;2022-12-07T09:56:40;3.80;99.90
72865;DHT22;61000;48.120;11.548;2022-12-07T09:59:13;3.80;99.90
72865;DHT22;61000;48.120;11.548;2022-12-07T10:01:40;3.90;99.90
72865;DHT22;61000;48.120;11.548;2022-12-07T10:04:13;3.90;99.90
72865;DHT22;61000;48.120;11.548;2022-12-07T10:06:41;3.90;99.90
72865;DHT22;61000;48.120;11.548;2022-12-07T10:09:10;3.90;99.90
72865;DHT22;61000;48.120;11.548;2022-12-07T10:12:03;4.00;99.90
72865;DHT22;61000;48.120;11.548;2022-12-07T10:14:32;4.00;99.90
72865;DHT22;61000;48.120;11.548;2022-12-07T10:17:00;4.00;99.90
72865;DHT22;61000;48.120;11.548;2022-12-07T10:19:28;4.00;99.90
72865;DHT22;61000;48.120;11.548;2022-12-07T10:22:01;4.10;99.90
72865;DHT22;61000;48.120;11.548;2022-12-07T10:24:28;4.20;99.90
72865;DHT22;61000;48.120;11.548;2022-12-07T10:26:55;4.20;99.90
72865;DHT22;61000;48.120;11.548;2022-12-07T10:29:28;4.30;99.90
72865;DHT22;61000;48.120;11.548;2022-12-07T10:31:57;4.20;99.90
72865;DHT22;61000;48.120;11.548;2022-12-07T10:34:26;4.30;99.90
72865;DHT22;61000;48.120;11.548;2022-12-07T10:37:12;4.30;99.90
72865;DHT22;61000;48.120;11.548;2022-12-07T10:39:42;4.40;99.90
72865;DHT22;61000;48.120;11.548;2022-12-07T10:42:16;4.50;99.90
72865;DHT22;61000;48.120;11.548;2022-12-07T10:44:45;4.60;99.90
72865;DHT22;61000;48.120;11.548;2022-12-07T10:47:28;4.60;99.90
72865;DHT22;61000;48.120;11.548;2022-12-07T10:50:19;4.70;99.90
72865;DHT22;61000;48.120;11.548;2022-12-07T10:53:06;4.70;99.90
72865;DHT22;61000;48.120;11.548;2022-12-07T10:55:52;4.70;99.90
72865;DHT22;61000;48.120;11.548;2022-12-07T10:58:36;4.80;99.90
72865;DHT22;61000;48.120;11.548;2022-12-07T11:01:14;4.90;99.90
72865;DHT22;61000;48.120;11.548;2022-12-07T11:03:52;4.80;99.90
72865;DHT22;61000;48.120;11.548;2022-12-07T11:06:27;4.90;99.90
72865;DHT22;61000;48.120;11.548;2022-12-07T11:09:04;4.70;99.90
72865;DHT22;61000;48.120;11.548;2022-12-07T11:11:42;4.70;99.90
72865;DHT22;61000;48.120;11.548;2022-12-07T11:14:18;4.70;99.90
72865;DHT22;61000;48.120;11.548;2022-12-07T11:16:55;4.70;99.90
72865;DHT22;61000;48.120;11.548;2022-12-07T11:19:42;4.70;99.90
72865;DHT22;61000;48.120;11.548;2022-12-07T11:22:20;4.70;99.90
72865;DHT22;61000;48.120;11.548;2022-12-07T11:24:55;4.80;99.80
72865;DHT22;61000;48.120;11.548;2022-12-07T11:27:32;4.80;99.80
72865;DHT22;61000;48.120;11.548;2022-12-07T11:30:16;4.80;99.40
72865;DHT22;61000;48.120;11.548;2022-12-07T11:32:56;4.80;99.20
72865;DHT22;61000;48.120;11.548;2022-12-07T11:35:35;4.80;99.10
72865;DHT22;61000;48.120;11.548;2022-12-07T11:38:09;4.90;99.30
72865;DHT22;61000;48.120;11.548;2022-12-07T11:40:38;4.90;99.10
72865;DHT22;61000;48.120;11.548;2022-12-07T11:43:13;5.00;98.70
72865;DHT22;61000;48.120;11.548;2022-12-07T11:45:43;5.00;98.50
72865;DHT22;61000;48.120;11.548;2022-12-07T11:48:17;5.10;98.60
72865;DHT22;61000;48.120;11.548;2022-12-07T11:50:50;5.10;98.50
72865;DHT22;61000;48.120;11.548;2022-12-07T11:53:22;5.10;98.50
72865;DHT22;61000;48.120;11.548;2022-12-07T11:55:56;5.20;98.30
72865;DHT22;61000;48.120;11.548;2022-12-07T11:58:45;5.20;98.00
72865;DHT22;61000;48.120;11.548;2022-12-07T12:01:24;5.10;98.10
72865;DHT22;61000;48.120;11.548;2022-12-07T12:03:58;5.20;98.20
72865;DHT22;61000;48.120;11.548;2022-12-07T12:06:27;5.30;97.90
72865;DHT22;61000;48.120;11.548;2022-12-07T12:08:59;5.30;97.70
72865;DHT22;61000;48.120;11.548;2022-12-07T12:11:39;5.30;97.90
72865;DHT22;61000;48.120;11.548;2022-12-07T12:14:32;5.40;98.10
72865;DHT22;61000;48.120;11.548;2022-12-07T12:20:26;5.20;98.00
72865;DHT22;61000;48.120;11.548;2022-12-07T12:23:00;5.20;98.10
72865;DHT22;61000;48.120;11.548;2022-12-07T12:25:37;5.20;98.00
72865;DHT22;61000;48.120;11.548;2022-12-07T12:28:06;5.20;98.00
72865;DHT22;61000;48.120;11.548;2022-12-07T12:30:43;5.10;98.10
72865;DHT22;61000;48.120;11.548;2022-12-07T12:33:16;5.10;98.50
72865;DHT22;61000;48.120;11.548;2022-12-07T12:36:19;5.10;98.60
72865;DHT22;61000;48.120;11.548;2022-12-07T12:38:52;5.10;98.60
72865;DHT22;61000;48.120;11.548;2022-12-07T12:41:58;5.10;99.00
72865;DHT22;61000;48.120;11.548;2022-12-07T12:50:31;5.00;98.70
72865;DHT22;61000;48.120;11.548;2022-12-07T12:53:19;5.00;98.90
72865;DHT22;61000;48.120;11.548;2022-12-07T12:56:23;5.00;99.10
72865;DHT22;61000;48.120;11.548;2022-12-07T12:59:21;5.00;99.20
72865;DHT22;61000;48.120;11.548;2022-12-07T13:01:49;5.00;99.80
72865;DHT22;61000;48.120;11.548;2022-12-07T13:04:40;5.00;99.90
72865;DHT22;61000;48.120;11.548;2022-12-07T13:07:51;5.00;99.90
72865;DHT22;61000;48.120;11.548;2022-12-07T13:10:38;5.10;99.90
72865;DHT22;61000;48.120;11.548;2022-12-07T13:13:29;5.00;99.70
72865;DHT22;61000;48.120;11.548;2022-12-07T13:18:56;4.90;99.90
72865;DHT22;61000;48.120;11.548;2022-12-07T13:21:46;4.90;99.90
72865;DHT22;61000;48.120;11.548;2022-12-07T13:24:14;4.90;99.90
72865;DHT22;61000;48.120;11.548;2022-12-07T13:26:43;5.00;99.90
72865;DHT22;61000;48.120;11.548;2022-12-07T13:29:13;4.90;99.90
72865;DHT22;61000;48.120;11.548;2022-12-07T13:31:42;4.90;99.90
72865;DHT22;61000;48.120;11.548;2022-12-07T13:34:29;4.90;99.90
72865;DHT22;61000;48.120;11.548;2022-12-07T13:36:57;5.00;99.80
72865;DHT22;61000;48.120;11.548;2022-12-07T13:39:26;4.80;99.60
72865;DHT22;61000;48.120;11.548;2022-12-07T13:41:55;4.90;99.60
72865;DHT22;61000;48.120;11.548;2022-12-07T13:44:24;5.00;99.60
72865;DHT22;61000;48.120;11.548;2022-12-07T13:47:03;5.00;99.40
72865;DHT22;61000;48.120;11.548;2022-12-07T13:49:36;4.90;99.00
72865;DHT22;61000;48.120;11.548;2022-12-07T13:52:17;4.90;98.80
72865;DHT22;61000;48.120;11.548;2022-12-07T13:54:46;4.90;98.90
72865;DHT22;61000;48.120;11.548;2022-12-07T13:57:15;4.90;98.70
72865;DHT22;61000;48.120;11.548;2022-12-07T13:59:42;4.80;98.80
72865;DHT22;61000;48.120;11.548;2022-12-07T14:02:19;4.90;98.60
72865;DHT22;61000;48.120;11.548;2022-12-07T14:04:48;4.80;98.30
72865;DHT22;61000;48.120;11.548;2022-12-07T14:07:24;4.70;98.30
72865;DHT22;61000;48.120;11.548;2022-12-07T14:09:56;4.60;98.20
72865;DHT22;61000;48.120;11.548;2022-12-07T14:12:25;4.60;98.50
72865;DHT22;61000;48.120;11.548;2022-12-07T14:14:53;4.50;98.70
72865;DHT22;61000;48.120;11.548;2022-12-07T14:17:23;4.50;98.60
72865;DHT22;61000;48.120;11.548;2022-12-07T14:19:52;4.40;98.50
72865;DHT22;61000;48.120;11.548;2022-12-07T14:22:26;4.40;98.50
72865;DHT22;61000;48.120;11.548;2022-12-07T14:25:02;4.40;98.40
72865;DHT22;61000;48.120;11.548;2022-12-07T14:27:46;4.40;98.50
72865;DHT22;61000;48.120;11.548;2022-12-07T14:30:16;4.40;98.40
72865;DHT22;61000;48.120;11.548;2022-12-07T14:32:43;4.40;98.30
72865;DHT22;61000;48.120;11.548;2022-12-07T14:35:15;4.30;98.30
72865;DHT22;61000;48.120;11.548;2022-12-07T14:37:44;4.30;98.40
72865;DHT22;61000;48.120;11.548;2022-12-07T14:40:13;4.30;98.50
72865;DHT22;61000;48.120;11.548;2022-12-07T14:42:42;4.30;98.40
72865;DHT22;61000;48.120;11.548;2022-12-07T14:45:14;4.20;97.80
72865;DHT22;61000;48.120;11.548;2022-12-07T14:47:43;4.20;98.10
72865;DHT22;61000;48.120;11.548;2022-12-07T14:50:12;4.20;97.50
72865;DHT22;61000;48.120;11.548;2022-12-07T14:52:40;4.10;97.50
72865;DHT22;61000;48.120;11.548;2022-12-07T14:55:14;4.10;97.60
72865;DHT22;61000;48.120;11.548;2022-12-07T14:57:44;4.00;97.60
72865;DHT22;61000;48.120;11.548;2022-12-07T15:00:14;4.00;97.80
72865;DHT22;61000;48.120;11.548;2022-12-07T15:02:43;4.00;97.80
72865;DHT22;61000;48.120;11.548;2022-12-07T15:05:10;4.00;97.70
72865;DHT22;61000;48.120;11.548;2022-12-07T15:07:37;3.90;97.70
72865;DHT22;61000;48.120;11.548;2022-12-07T15:10:05;3.90;98.00
72865;DHT22;61000;48.120;11.548;2022-12-07T15:12:32;3.90;98.90
72865;DHT22;61000;48.120;11.548;2022-12-07T15:15:00;3.90;99.60
72865;DHT22;61000;48.120;11.548;2022-12-07T15:17:28;3.90;99.90
72865;DHT22;61000;48.120;11.548;2022-12-07T15:19:54;3.80;99.90
72865;DHT22;61000;48.120;11.548;2022-12-07T15:22:21;3.80;99.90
72865;DHT22;61000;48.120;11.548;2022-12-07T15:24:48;3.70;99.90
72865;DHT22;61000;48.120;11.548;2022-12-07T15:27:15;3.70;99.90
72865;DHT22;61000;48.120;11.548;2022-12-07T15:29:42;3.60;99.90
72865;DHT22;61000;48.120;11.548;2022-12-07T15:32:10;3.60;99.90
72865;DHT22;61000;48.120;11.548;2022-12-07T15:34:37;3.60;99.90
72865;DHT22;61000;48.120;11.548;2022-12-07T15:37:04;3.50;99.90
72865;DHT22;61000;48.120;11.548;2022-12-07T15:39:31;3.50;99.90
72865;DHT22;61000;48.120;11.548;2022-12-07T15:41:58;3.50;99.90
72865;DHT22;61000;48.120;11.548;2022-12-07T15:44:24;3.50;99.90
72865;DHT22;61000;48.120;11.548;2022-12-07T15:47:18;3.50;99.90
72865;DHT22;61000;48.120;11.548;2022-12-07T15:49:46;3.40;99.90
72865;DHT22;61000;48.120;11.548;2022-12-07T15:52:13;3.40;99.90
72865;DHT22;61000;48.120;11.548;2022-12-07T15:54:39;3.40;99.90
72865;DHT22;61000;48.120;11.548;2022-12-07T15:57:06;3.40;99.90
72865;DHT22;61000;48.120;11.548;2022-12-07T15:59:33;3.40;99.90
72865;DHT22;61000;48.120;11.548;2022-12-07T16:02:00;3.40;99.90
72865;DHT22;61000;48.120;11.548;2022-12-07T16:04:28;3.40;99.90
72865;DHT22;61000;48.120;11.548;2022-12-07T16:06:55;3.40;99.90